createdAt,value
2023-03-12T00:01:33.614Z,6.40
2023-03-12T00:04:03.989Z,6.90
2023-03-12T00:06:31.250Z,7.10
2023-03-12T00:08:59.271Z,8.45
2023-03-12T00:11:26.357Z,7.50
2023-03-12T00:13:55.531Z,6.32
2023-03-12T00:16:23.755Z,5.93
2023-03-12T00:18:53.017Z,6.20
2023-03-12T00:21:22.176Z,6.80
2023-03-12T00:23:50.323Z,6.15
2023-03-12T00:26:18.933Z,5.88
2023-03-12T00:28:47.355Z,6.50
2023-03-12T00:31:21.680Z,6.85
2023-03-12T00:33:51.759Z,5.50
2023-03-12T00:36:21.657Z,6.85
2023-03-12T00:38:48.686Z,5.55
2023-03-12T00:41:15.755Z,6.10
2023-03-12T00:43:42.872Z,5.57
2023-03-12T00:46:10.032Z,5.93
2023-03-12T00:48:37.460Z,5.88
2023-03-12T00:51:04.765Z,4.80
2023-03-12T00:53:31.828Z,4.60
2023-03-12T00:55:59.005Z,4.22
2023-03-12T00:58:26.028Z,4.15
2023-03-12T01:00:53.257Z,4.00
2023-03-12T01:03:20.805Z,4.55
2023-03-12T01:05:54.074Z,3.95
2023-03-12T01:08:23.565Z,2.75
2023-03-12T01:10:50.917Z,2.45
2023-03-12T01:13:18.282Z,3.20
2023-03-12T01:15:45.799Z,4.97
2023-03-12T01:18:13.070Z,5.07
2023-03-12T01:20:41.360Z,5.45
2023-03-12T01:23:08.821Z,4.78
2023-03-12T01:25:37.019Z,5.05
2023-03-12T01:28:05.061Z,5.22
2023-03-12T01:30:32.389Z,4.47
2023-03-12T01:32:59.742Z,3.90
2023-03-12T01:35:26.944Z,2.40
2023-03-12T01:37:56.142Z,2.40
2023-03-12T01:40:29.148Z,2.20
2023-03-12T01:42:58.583Z,1.90
2023-03-12T01:46:10.806Z,2.33
2023-03-12T01:48:49.453Z,2.50
2023-03-12T01:51:18.414Z,2.78
2023-03-12T01:53:48.407Z,3.55
2023-03-12T01:56:17.874Z,2.33
2023-03-12T01:58:51.023Z,2.30
2023-03-12T02:01:19.466Z,2.33
2023-03-12T02:03:52.269Z,2.20
2023-03-12T02:06:25.160Z,2.90
2023-03-12T02:08:52.654Z,2.47
2023-03-12T02:11:19.667Z,2.30
2023-03-12T02:13:46.838Z,3.00
2023-03-12T02:16:14.019Z,4.32
2023-03-12T02:18:41.770Z,7.68
2023-03-12T02:21:20.497Z,6.85
2023-03-12T02:24:16.445Z,7.35
2023-03-12T02:26:43.639Z,7.45
2023-03-12T02:29:12.022Z,12.75
2023-03-12T02:31:50.901Z,13.18
2023-03-12T02:34:18.185Z,7.57
2023-03-12T02:36:45.270Z,8.93
2023-03-12T02:39:13.477Z,29.38
2023-03-12T02:41:45.175Z,16.42
2023-03-12T02:44:30.208Z,8.95
2023-03-12T02:46:59.528Z,7.60
2023-03-12T02:49:30.655Z,5.95
2023-03-12T02:51:58.051Z,5.25
2023-03-12T02:54:25.644Z,5.55
2023-03-12T02:56:53.553Z,5.22
2023-03-12T02:59:22.207Z,5.32
2023-03-12T03:01:53.345Z,6.10
2023-03-12T03:04:20.663Z,6.47
2023-03-12T03:06:48.951Z,8.40
2023-03-12T03:09:16.157Z,6.78
2023-03-12T03:11:43.232Z,8.20
2023-03-12T03:14:10.608Z,8.05
2023-03-12T03:16:37.939Z,6.57
2023-03-12T03:19:05.662Z,7.07
2023-03-12T03:21:33.093Z,7.25
2023-03-12T03:24:00.267Z,7.40
2023-03-12T03:26:27.449Z,7.82
2023-03-12T03:28:54.938Z,8.15
2023-03-12T03:31:22.389Z,8.75
2023-03-12T03:33:49.901Z,8.57
2023-03-12T03:36:17.814Z,10.25
2023-03-12T03:38:49.479Z,9.73
2023-03-12T03:41:18.107Z,9.35
2023-03-12T03:43:45.281Z,10.70
2023-03-12T03:46:14.027Z,8.85
2023-03-12T03:48:41.803Z,9.20
2023-03-12T03:51:10.554Z,10.48
2023-03-12T03:53:37.695Z,11.73
2023-03-12T03:56:14.438Z,9.00
2023-03-12T03:58:41.879Z,12.35
2023-03-12T04:01:09.914Z,9.98
2023-03-12T04:03:37.085Z,9.38
2023-03-12T04:06:06.463Z,6.90
2023-03-12T04:08:35.873Z,5.10
2023-03-12T04:11:11.480Z,4.20
2023-03-12T04:13:39.136Z,5.20
2023-03-12T04:16:06.733Z,4.95
2023-03-12T04:18:36.258Z,6.68
2023-03-12T04:21:05.334Z,5.32
2023-03-12T04:23:33.076Z,4.78
2023-03-12T04:26:00.492Z,9.32
2023-03-12T04:28:27.547Z,7.57
2023-03-12T04:31:02.751Z,10.23
2023-03-12T04:33:31.638Z,11.05
2023-03-12T04:35:59.150Z,11.52
2023-03-12T04:38:28.164Z,11.80
2023-03-12T04:41:07.767Z,13.88
2023-03-12T04:43:35.416Z,19.65
2023-03-12T04:46:03.119Z,10.98
2023-03-12T04:48:30.365Z,10.45
2023-03-12T04:50:57.540Z,13.60
2023-03-12T04:53:25.466Z,14.65
2023-03-12T04:55:52.645Z,13.23
2023-03-12T04:58:20.480Z,11.88
2023-03-12T05:00:48.950Z,13.98
2023-03-12T05:03:16.719Z,12.05
2023-03-12T05:05:44.339Z,13.63
2023-03-12T05:08:11.369Z,11.38
2023-03-12T05:10:38.848Z,13.27
2023-03-12T05:13:14.276Z,10.88
2023-03-12T05:15:41.774Z,8.52
2023-03-12T05:18:08.805Z,10.75
2023-03-12T05:20:36.126Z,9.05
2023-03-12T05:23:03.216Z,9.65
2023-03-12T05:25:30.289Z,8.32
2023-03-12T05:27:57.494Z,9.88
2023-03-12T05:30:24.578Z,9.05
2023-03-12T05:32:51.631Z,10.65
2023-03-12T05:35:18.978Z,9.13
2023-03-12T05:37:46.052Z,9.45
2023-03-12T05:40:13.870Z,8.90
2023-03-12T05:42:41.079Z,8.70
2023-03-12T05:45:08.718Z,8.55
2023-03-12T05:47:35.756Z,7.93
2023-03-12T05:50:04.612Z,8.65
2023-03-12T05:52:31.684Z,9.95
2023-03-12T05:54:58.716Z,8.70
2023-03-12T05:57:26.072Z,7.85
2023-03-12T05:59:53.399Z,8.15
2023-03-12T06:02:20.877Z,9.10
2023-03-12T06:04:47.994Z,7.40
2023-03-12T06:07:15.204Z,6.65
2023-03-12T06:09:43.166Z,6.15
2023-03-12T06:12:10.570Z,5.80
2023-03-12T06:14:37.624Z,5.05
2023-03-12T06:17:04.720Z,4.97
2023-03-12T06:19:31.846Z,4.03
2023-03-12T06:21:59.113Z,4.35
2023-03-12T06:24:26.179Z,4.90
2023-03-12T06:26:53.253Z,5.80
2023-03-12T06:29:20.340Z,5.82
2023-03-12T06:31:48.545Z,6.80
2023-03-12T06:34:17.097Z,6.25
2023-03-12T06:36:44.480Z,7.22
2023-03-12T06:39:11.638Z,5.90
2023-03-12T06:41:38.723Z,4.82
2023-03-12T06:44:09.053Z,5.45
2023-03-12T06:46:37.301Z,4.95
2023-03-12T06:49:04.662Z,4.10
2023-03-12T06:51:31.789Z,3.75
2023-03-12T06:54:01.299Z,4.18
2023-03-12T06:56:29.141Z,5.03
2023-03-12T06:58:56.635Z,6.45
2023-03-12T07:01:23.929Z,5.55
2023-03-12T07:03:51.074Z,4.10
2023-03-12T07:06:21.008Z,5.13
2023-03-12T07:08:49.036Z,6.93
2023-03-12T07:11:16.489Z,7.25
2023-03-12T07:13:44.215Z,7.20
2023-03-12T07:16:11.887Z,7.32
2023-03-12T07:18:39.029Z,7.57
2023-03-12T07:21:07.236Z,7.32
2023-03-12T07:23:34.275Z,7.35
2023-03-12T07:26:01.426Z,7.50
2023-03-12T07:28:28.511Z,8.48
2023-03-12T07:31:01.277Z,8.00
2023-03-12T07:33:28.625Z,8.50
2023-03-12T07:35:55.780Z,7.38
2023-03-12T07:38:23.151Z,7.82
2023-03-12T07:40:54.755Z,7.32
2023-03-12T07:43:22.730Z,8.20
2023-03-12T07:45:50.610Z,6.90
2023-03-12T07:48:20.226Z,7.28
2023-03-12T07:50:48.608Z,8.18
2023-03-12T07:53:16.821Z,8.73
2023-03-12T07:55:48.229Z,7.55
2023-03-12T07:58:17.138Z,8.60
2023-03-12T08:00:45.328Z,7.55
2023-03-12T08:03:13.633Z,7.57
2023-03-12T08:05:41.109Z,8.80
2023-03-12T08:08:08.524Z,7.40
2023-03-12T08:10:37.315Z,8.23
2023-03-12T08:13:04.506Z,8.25
2023-03-12T08:15:31.678Z,6.40
2023-03-12T08:17:59.652Z,6.50
2023-03-12T08:20:26.678Z,5.50
2023-03-12T08:22:53.743Z,6.07
2023-03-12T08:25:21.406Z,5.57
2023-03-12T08:27:48.694Z,5.82
2023-03-12T08:30:15.862Z,5.68
2023-03-12T08:32:42.976Z,6.00
2023-03-12T08:35:10.626Z,5.90
2023-03-12T08:37:37.667Z,7.95
2023-03-12T08:40:13.514Z,9.38
2023-03-12T08:42:42.141Z,10.10
2023-03-12T08:45:10.995Z,10.15
2023-03-12T08:47:41.996Z,9.98
2023-03-12T08:50:11.717Z,9.43
2023-03-12T08:52:39.308Z,10.68
2023-03-12T08:55:06.940Z,10.02
2023-03-12T08:57:34.062Z,9.68
2023-03-12T09:00:01.200Z,8.98
2023-03-12T09:02:28.929Z,9.80
2023-03-12T09:04:56.193Z,9.98
2023-03-12T09:07:23.780Z,10.82
2023-03-12T09:09:50.834Z,11.20
2023-03-12T09:12:18.214Z,11.10
2023-03-12T09:17:32.678Z,11.80
2023-03-12T09:20:07.158Z,16.38
2023-03-12T09:22:37.690Z,17.50
2023-03-12T09:25:05.901Z,17.08
2023-03-12T09:27:41.417Z,18.90
2023-03-12T09:30:10.949Z,19.02
2023-03-12T09:32:38.537Z,17.50
2023-03-12T09:35:07.607Z,16.08
2023-03-12T09:37:35.185Z,15.60
2023-03-12T09:40:02.476Z,17.33
2023-03-12T09:42:32.588Z,17.00
2023-03-12T09:45:03.585Z,19.15
2023-03-12T09:47:43.618Z,18.02
2023-03-12T09:50:13.720Z,17.00
2023-03-12T09:52:49.183Z,16.55
2023-03-12T09:55:20.179Z,15.77
2023-03-12T09:57:48.976Z,17.58
2023-03-12T10:00:22.228Z,16.95
2023-03-12T10:03:07.120Z,18.58
2023-03-12T10:05:59.602Z,17.65
2023-03-12T10:08:51.677Z,18.15
2023-03-12T10:11:25.124Z,17.63
2023-03-12T10:14:02.743Z,18.05
2023-03-12T10:16:49.944Z,17.92
2023-03-12T10:19:29.285Z,16.35
2023-03-12T10:21:59.756Z,15.43
2023-03-12T10:24:40.027Z,18.92
2023-03-12T10:27:14.573Z,19.23
2023-03-12T10:29:45.084Z,20.13
2023-03-12T10:32:12.170Z,17.83
2023-03-12T10:34:48.467Z,17.70
2023-03-12T10:37:21.808Z,17.63
2023-03-12T10:39:49.119Z,16.58
2023-03-12T10:42:21.910Z,17.13
2023-03-12T10:45:01.696Z,15.90
2023-03-12T10:47:40.749Z,17.52
2023-03-12T10:50:19.664Z,15.85
2023-03-12T10:52:48.757Z,15.20
2023-03-12T10:55:30.225Z,14.50
2023-03-12T10:57:59.040Z,15.25
2023-03-12T11:00:28.682Z,14.63
2023-03-12T11:03:04.222Z,13.93
2023-03-12T11:05:49.333Z,14.07
2023-03-12T11:08:32.045Z,14.35
2023-03-12T11:11:01.462Z,13.85
2023-03-12T11:13:42.274Z,13.23
2023-03-12T11:16:18.478Z,14.73
2023-03-12T11:19:01.718Z,14.07
2023-03-12T11:21:30.024Z,14.65
2023-03-12T11:23:57.049Z,14.57
2023-03-12T11:26:29.231Z,14.55
2023-03-12T11:28:56.177Z,13.43
2023-03-12T11:32:06.676Z,13.80
2023-03-12T11:34:37.669Z,12.73
2023-03-12T11:37:33.464Z,13.98
2023-03-12T11:40:12.499Z,12.98
2023-03-12T11:43:04.190Z,13.50
2023-03-12T11:46:00.586Z,13.23
2023-03-12T11:48:42.652Z,11.38
2023-03-12T11:51:31.085Z,14.38
2023-03-12T11:54:25.439Z,15.07
2023-03-12T11:59:58.404Z,13.10
2023-03-12T12:02:47.480Z,12.75
2023-03-12T12:05:39.226Z,14.45
2023-03-12T12:08:32.405Z,11.77
2023-03-12T12:11:06.475Z,14.00
2023-03-12T12:13:36.536Z,12.10
2023-03-12T12:16:06.503Z,13.93
2023-03-12T12:19:06.008Z,15.52
2023-03-12T12:21:40.459Z,13.43
2023-03-12T12:24:37.877Z,14.07
2023-03-12T12:27:06.247Z,13.07
2023-03-12T12:29:54.453Z,14.40
2023-03-12T12:32:50.788Z,12.70
2023-03-12T12:35:23.761Z,13.38
2023-03-12T12:38:05.789Z,12.85
2023-03-12T12:40:45.553Z,13.32
2023-03-12T12:43:28.994Z,15.43
2023-03-12T12:45:59.748Z,12.45
2023-03-12T12:49:04.306Z,12.45
2023-03-12T12:54:16.589Z,12.68
2023-03-12T12:56:59.784Z,13.25
2023-03-12T12:59:31.883Z,14.70
2023-03-12T13:02:01.168Z,14.43
2023-03-12T13:04:36.441Z,12.50
2023-03-12T13:07:12.353Z,13.15
2023-03-12T13:09:51.638Z,12.35
2023-03-12T13:12:42.787Z,13.43
2023-03-12T13:15:28.367Z,14.02
2023-03-12T13:18:08.122Z,13.43
2023-03-12T13:21:19.862Z,13.43
2023-03-12T13:23:54.002Z,13.43
2023-03-12T13:26:32.196Z,12.15
2023-03-12T13:29:13.429Z,14.30
2023-03-12T13:31:43.120Z,14.65
2023-03-12T13:34:30.505Z,12.88
2023-03-12T13:37:01.644Z,13.13
2023-03-12T13:39:34.527Z,13.73
2023-03-12T13:42:22.337Z,12.70
2023-03-12T13:44:50.717Z,13.35
2023-03-12T13:47:27.130Z,12.35
2023-03-12T13:50:05.430Z,12.82
2023-03-12T13:52:58.410Z,13.88
2023-03-12T13:55:31.921Z,14.38
2023-03-12T13:58:21.641Z,13.45
2023-03-12T14:00:56.546Z,13.98
2023-03-12T14:03:30.209Z,11.40
2023-03-12T14:06:06.124Z,12.45
2023-03-12T14:08:40.738Z,11.93
2023-03-12T14:11:08.645Z,12.38
2023-03-12T14:14:03.383Z,11.63
2023-03-12T14:16:49.767Z,12.13
2023-03-12T14:19:19.983Z,12.68
2023-03-12T14:21:49.779Z,12.38
2023-03-12T14:24:31.058Z,11.38
2023-03-12T14:26:59.149Z,13.48
2023-03-12T14:29:28.615Z,12.18
2023-03-12T14:31:59.788Z,12.85
2023-03-12T14:34:30.784Z,11.95
2023-03-12T14:37:11.041Z,12.32
2023-03-12T14:39:50.824Z,11.90
2023-03-12T14:42:29.712Z,12.30
2023-03-12T14:45:04.138Z,12.82
2023-03-12T14:47:39.491Z,11.55
2023-03-12T14:50:06.868Z,11.75
2023-03-12T14:52:34.653Z,12.75
2023-03-12T14:55:01.736Z,11.43
2023-03-12T14:57:29.135Z,11.68
2023-03-12T14:59:58.184Z,11.25
2023-03-12T15:02:26.910Z,11.82
2023-03-12T15:04:57.480Z,12.43
2023-03-12T15:07:31.148Z,12.55
2023-03-12T15:12:35.326Z,11.50
2023-03-12T15:15:08.907Z,12.50
2023-03-12T15:17:36.477Z,11.65
2023-03-12T15:20:09.681Z,13.05
2023-03-12T15:22:37.828Z,11.95
2023-03-12T15:25:29.140Z,11.95
2023-03-12T15:28:11.392Z,11.10
2023-03-12T15:30:40.180Z,12.05
2023-03-12T15:33:16.215Z,11.90
2023-03-12T15:36:04.640Z,11.00
2023-03-12T15:38:35.396Z,10.30
2023-03-12T15:41:10.057Z,10.88
2023-03-12T15:43:37.940Z,10.00
2023-03-12T15:46:07.314Z,10.75
2023-03-12T15:48:40.691Z,10.25
2023-03-12T15:51:17.580Z,10.35
2023-03-12T15:53:44.660Z,11.45
2023-03-12T15:56:11.727Z,10.35
2023-03-12T15:58:42.765Z,9.50
2023-03-12T16:01:14.250Z,10.23
2023-03-12T16:03:43.254Z,8.50
2023-03-12T16:06:17.557Z,10.50
2023-03-12T16:08:49.512Z,9.55
2023-03-12T16:11:22.749Z,9.45
2023-03-12T16:13:52.467Z,9.77
2023-03-12T16:16:19.534Z,10.45
2023-03-12T16:18:46.712Z,11.07
2023-03-12T16:21:13.791Z,10.52
2023-03-12T16:23:40.910Z,9.88
2023-03-12T16:26:08.406Z,10.45
2023-03-12T16:28:36.697Z,10.18
2023-03-12T16:31:04.144Z,9.38
2023-03-12T16:33:31.159Z,10.00
2023-03-12T16:35:58.948Z,9.20
2023-03-12T16:38:26.271Z,10.18
2023-03-12T16:40:54.128Z,10.13
2023-03-12T16:43:28.333Z,9.73
2023-03-12T16:45:56.865Z,9.40
2023-03-12T16:48:24.684Z,8.52
2023-03-12T16:50:55.763Z,9.32
2023-03-12T16:53:23.366Z,9.35
2023-03-12T16:55:54.203Z,9.68
2023-03-12T16:58:22.870Z,10.23
2023-03-12T17:00:51.605Z,9.63
2023-03-12T17:03:38.594Z,9.95
2023-03-12T17:06:07.001Z,9.95
2023-03-12T17:08:36.259Z,10.10
2023-03-12T17:11:05.229Z,8.82
2023-03-12T17:13:32.369Z,10.73
2023-03-12T17:16:00.273Z,10.00
2023-03-12T17:18:27.479Z,10.05
2023-03-12T17:20:55.491Z,8.90
2023-03-12T17:23:23.145Z,10.93
2023-03-12T17:25:50.705Z,11.35
2023-03-12T17:28:17.796Z,10.07
2023-03-12T17:30:45.143Z,9.35
2023-03-12T17:33:15.232Z,10.75
2023-03-12T17:35:43.236Z,9.98
2023-03-12T17:38:10.968Z,9.45
2023-03-12T17:40:42.238Z,10.65
2023-03-12T17:43:09.395Z,10.55
2023-03-12T17:45:37.276Z,9.40
2023-03-12T17:48:04.744Z,9.98
2023-03-12T17:50:31.971Z,10.25
2023-03-12T17:52:59.034Z,10.70
2023-03-12T17:55:26.173Z,11.15
2023-03-12T17:57:53.263Z,10.93
2023-03-12T18:00:22.208Z,11.65
2023-03-12T18:02:49.684Z,11.77
2023-03-12T18:05:17.731Z,10.00
2023-03-12T18:07:48.378Z,9.52
2023-03-12T18:10:15.526Z,9.65
2023-03-12T18:12:42.656Z,9.38
2023-03-12T18:15:13.870Z,10.52
2023-03-12T18:17:42.121Z,12.15
2023-03-12T18:20:12.865Z,10.73
2023-03-12T18:22:40.151Z,11.63
2023-03-12T18:25:08.139Z,11.23
2023-03-12T18:27:35.434Z,10.23
2023-03-12T18:30:02.526Z,10.98
2023-03-12T18:32:29.611Z,10.20
2023-03-12T18:34:57.121Z,10.80
2023-03-12T18:37:24.282Z,11.10
2023-03-12T18:39:51.279Z,10.77
2023-03-12T18:42:18.618Z,12.13
2023-03-12T18:44:45.773Z,10.30
2023-03-12T18:47:12.921Z,11.15
2023-03-12T18:49:40.588Z,12.07
2023-03-12T18:52:08.328Z,12.60
2023-03-12T18:54:35.575Z,12.32
2023-03-12T18:57:02.627Z,10.55
2023-03-12T18:59:32.227Z,10.23
2023-03-12T19:01:59.450Z,10.27
2023-03-12T19:04:27.988Z,10.90
2023-03-12T19:06:55.106Z,9.70
2023-03-12T19:09:22.298Z,10.75
2023-03-12T19:11:50.012Z,10.45
2023-03-12T19:14:17.393Z,11.38
2023-03-12T19:16:44.415Z,8.90
2023-03-12T19:19:11.803Z,9.35
2023-03-12T19:21:38.883Z,9.63
2023-03-12T19:24:06.072Z,10.25
2023-03-12T19:26:33.219Z,11.13
2023-03-12T19:29:00.344Z,10.13
2023-03-12T19:31:27.554Z,11.70
2023-03-12T19:33:54.657Z,12.13
2023-03-12T19:36:21.767Z,13.30
2023-03-12T19:38:48.862Z,12.60
2023-03-12T19:41:16.892Z,14.50
2023-03-12T19:43:43.999Z,12.18
2023-03-12T19:46:11.468Z,10.82
2023-03-12T19:48:38.560Z,13.60
2023-03-12T19:51:10.550Z,12.32
2023-03-12T19:53:38.615Z,12.18
2023-03-12T19:56:06.260Z,12.60
2023-03-12T19:58:33.306Z,15.10
2023-03-12T20:01:04.141Z,15.45
2023-03-12T20:03:33.037Z,13.50
2023-03-12T20:06:00.223Z,13.02
2023-03-12T20:08:33.587Z,12.35
2023-03-12T20:11:09.771Z,10.23
2023-03-12T20:13:40.434Z,14.15
2023-03-12T20:16:08.279Z,15.38
2023-03-12T20:18:35.490Z,16.85
2023-03-12T20:21:02.528Z,18.10
2023-03-12T20:23:29.589Z,16.13
2023-03-12T20:25:57.023Z,15.02
2023-03-12T20:28:24.017Z,15.93
2023-03-12T20:30:51.257Z,16.98
2023-03-12T20:33:18.656Z,16.10
2023-03-12T20:35:45.777Z,15.68
2023-03-12T20:38:12.838Z,16.85
2023-03-12T20:40:40.104Z,14.45
2023-03-12T20:43:07.176Z,12.90
2023-03-12T20:45:34.825Z,13.88
2023-03-12T20:48:02.104Z,14.52
2023-03-12T20:50:29.555Z,12.88
2023-03-12T20:52:56.618Z,13.75
2023-03-12T20:55:23.766Z,13.73
2023-03-12T20:57:50.861Z,14.15
2023-03-12T21:00:18.372Z,13.30
2023-03-12T21:02:45.540Z,12.27
2023-03-12T21:05:13.908Z,13.15
2023-03-12T21:07:41.103Z,13.02
2023-03-12T21:10:09.291Z,11.93
2023-03-12T21:12:36.768Z,13.75
2023-03-12T21:15:07.284Z,11.43
2023-03-12T21:17:37.084Z,13.25
2023-03-12T21:20:09.764Z,13.73
2023-03-12T21:22:37.836Z,14.38
2023-03-12T21:25:05.833Z,13.32
2023-03-12T21:27:44.599Z,12.98
2023-03-12T21:30:17.167Z,13.68
2023-03-12T21:32:44.301Z,14.32
2023-03-12T21:35:11.630Z,13.38
2023-03-12T21:37:38.708Z,13.40
2023-03-12T21:40:06.796Z,12.98
2023-03-12T21:42:33.925Z,10.93
2023-03-12T21:45:01.113Z,9.05
2023-03-12T21:47:28.188Z,9.32
2023-03-12T21:49:55.347Z,9.00
2023-03-12T21:52:22.451Z,8.98
2023-03-12T21:54:49.591Z,6.72
2023-03-12T21:57:16.623Z,5.20
2023-03-12T21:59:43.744Z,5.75
2023-03-12T22:02:15.306Z,6.97
2023-03-12T22:04:42.523Z,8.15
2023-03-12T22:07:09.696Z,8.75
2023-03-12T22:09:36.774Z,9.80
2023-03-12T22:12:04.103Z,9.80
2023-03-12T22:14:31.381Z,11.52
2023-03-12T22:16:58.452Z,10.98
2023-03-12T22:19:25.532Z,10.20
2023-03-12T22:21:52.872Z,11.05
2023-03-12T22:24:19.895Z,10.70
2023-03-12T22:26:47.147Z,9.65
2023-03-12T22:29:14.204Z,11.77
2023-03-12T22:31:41.356Z,10.50
2023-03-12T22:34:09.157Z,9.98
2023-03-12T22:36:38.997Z,9.98
2023-03-12T22:39:06.185Z,10.02
2023-03-12T22:41:33.514Z,8.98
2023-03-12T22:44:06.971Z,11.13
2023-03-12T22:46:34.239Z,10.35
2023-03-12T22:49:03.355Z,9.30
2023-03-12T22:51:32.900Z,8.80
2023-03-12T22:54:00.594Z,8.75
2023-03-12T22:56:28.038Z,8.90
2023-03-12T22:58:55.916Z,8.80
2023-03-12T23:01:24.111Z,9.15
2023-03-12T23:03:52.145Z,8.93
2023-03-12T23:06:25.324Z,9.88
2023-03-12T23:08:55.212Z,9.77
2023-03-12T23:11:25.633Z,10.18
2023-03-12T23:13:55.394Z,9.57
2023-03-12T23:16:25.328Z,9.82
2023-03-12T23:18:52.837Z,9.35
2023-03-12T23:21:22.203Z,9.48
2023-03-12T23:23:50.050Z,8.98
2023-03-12T23:26:28.662Z,8.32
2023-03-12T23:28:57.613Z,7.90
2023-03-12T23:31:27.726Z,9.07
2023-03-12T23:33:55.803Z,9.40
2023-03-12T23:36:23.568Z,8.05
2023-03-12T23:38:50.895Z,7.47
2023-03-12T23:41:25.976Z,8.20
2023-03-12T23:43:53.581Z,7.75
2023-03-12T23:46:21.204Z,8.02
2023-03-12T23:48:49.128Z,7.43
2023-03-12T23:51:19.035Z,7.43
2023-03-12T23:53:47.839Z,7.10
2023-03-12T23:56:17.524Z,7.82
2023-03-12T23:58:45.389Z,7.68
